createdAt,value
2017-09-23T00:00:08.151Z,11.10
2017-09-23T00:02:35.055Z,10.80
2017-09-23T00:05:01.175Z,10.80
2017-09-23T00:07:27.314Z,10.80
2017-09-23T00:09:53.434Z,10.80
2017-09-23T00:12:19.578Z,10.80
2017-09-23T00:14:45.706Z,10.80
2017-09-23T00:17:11.855Z,10.80
2017-09-23T00:19:37.982Z,10.80
2017-09-23T00:22:04.109Z,10.70
2017-09-23T00:24:30.239Z,10.70
2017-09-23T00:26:56.367Z,10.60
2017-09-23T00:29:22.515Z,10.50
2017-09-23T00:31:48.637Z,10.50
2017-09-23T00:34:14.779Z,10.50
2017-09-23T00:36:40.918Z,10.50
2017-09-23T00:39:07.043Z,10.50
2017-09-23T00:41:33.198Z,10.50
2017-09-23T00:43:59.372Z,10.50
2017-09-23T00:46:26.234Z,10.50
2017-09-23T00:48:52.379Z,10.50
2017-09-23T00:51:18.505Z,10.50
2017-09-23T00:53:44.647Z,10.60
2017-09-23T00:56:11.531Z,10.50
2017-09-23T00:58:37.674Z,10.50
2017-09-23T01:01:04.523Z,10.60
2017-09-23T01:03:30.685Z,10.60
2017-09-23T01:05:56.801Z,10.60
2017-09-23T01:08:23.000Z,10.60
2017-09-23T01:10:49.146Z,10.60
2017-09-23T01:13:15.300Z,10.60
2017-09-23T01:15:41.443Z,10.60
2017-09-23T01:18:07.590Z,10.60
2017-09-23T01:20:34.462Z,10.60
2017-09-23T01:23:00.631Z,10.60
2017-09-23T01:25:27.546Z,10.60
2017-09-23T01:27:53.712Z,10.60
2017-09-23T01:30:19.929Z,10.60
2017-09-23T01:32:46.078Z,10.70
2017-09-23T01:35:12.214Z,10.80
2017-09-23T01:37:39.082Z,10.80
2017-09-23T01:40:05.236Z,10.80
2017-09-23T01:42:31.369Z,10.80
2017-09-23T01:44:57.535Z,10.80
2017-09-23T01:47:23.654Z,10.80
2017-09-23T01:49:49.803Z,10.80
2017-09-23T01:52:15.935Z,10.80
2017-09-23T01:54:42.062Z,10.80
2017-09-23T01:57:08.183Z,10.80
2017-09-23T01:59:34.310Z,10.90
2017-09-23T02:02:00.433Z,10.90
2017-09-23T02:04:26.569Z,10.90
2017-09-23T02:06:53.431Z,10.90
2017-09-23T02:09:19.562Z,10.90
2017-09-23T02:11:45.687Z,10.80
2017-09-23T02:14:11.828Z,10.90
2017-09-23T02:16:37.959Z,10.90
2017-09-23T02:19:04.097Z,10.90
2017-09-23T02:21:30.242Z,10.80
2017-09-23T02:23:56.362Z,10.80
2017-09-23T02:26:23.250Z,10.80
2017-09-23T02:28:49.383Z,10.80
2017-09-23T02:31:15.539Z,10.80
2017-09-23T02:33:42.752Z,10.80
2017-09-23T02:36:09.638Z,10.80
2017-09-23T02:38:35.756Z,10.80
2017-09-23T02:41:01.969Z,10.80
2017-09-23T02:43:28.113Z,10.80
2017-09-23T02:45:55.152Z,10.80
2017-09-23T02:48:22.026Z,10.60
2017-09-23T02:50:48.183Z,10.60
2017-09-23T02:53:15.065Z,10.70
2017-09-23T02:55:41.227Z,10.60
2017-09-23T02:58:08.113Z,10.50
2017-09-23T03:00:34.302Z,10.50
2017-09-23T03:03:00.436Z,10.60
2017-09-23T03:05:26.578Z,10.60
2017-09-23T03:07:52.702Z,10.60
2017-09-23T03:10:19.558Z,10.60
2017-09-23T03:12:45.711Z,10.60
2017-09-23T03:15:11.854Z,10.60
2017-09-23T03:17:38.851Z,10.50
2017-09-23T03:20:04.978Z,10.50
2017-09-23T03:22:31.103Z,10.50
2017-09-23T03:24:57.979Z,10.50
2017-09-23T03:27:24.132Z,10.50
2017-09-23T03:29:50.263Z,10.50
2017-09-23T03:32:17.139Z,10.50
2017-09-23T03:34:43.267Z,10.50
2017-09-23T03:37:09.402Z,10.50
2017-09-23T03:39:35.535Z,10.50
2017-09-23T03:42:01.697Z,10.50
2017-09-23T03:44:27.828Z,10.50
2017-09-23T03:46:53.981Z,10.40
2017-09-23T03:49:20.118Z,10.30
2017-09-23T03:51:46.266Z,10.40
2017-09-23T03:54:12.416Z,10.40
2017-09-23T03:56:38.547Z,10.40
2017-09-23T03:59:04.673Z,10.40
2017-09-23T04:01:30.852Z,10.40
2017-09-23T04:03:56.999Z,10.50
2017-09-23T04:06:23.110Z,10.50
2017-09-23T04:08:49.270Z,10.40
2017-09-23T04:11:16.129Z,10.50
2017-09-23T04:13:42.267Z,10.50
2017-09-23T04:16:08.447Z,10.40
2017-09-23T04:18:35.387Z,10.20
2017-09-23T04:21:01.516Z,10.20
2017-09-23T04:23:27.666Z,10.20
2017-09-23T04:25:54.531Z,10.30
2017-09-23T04:28:20.682Z,10.30
2017-09-23T04:30:46.814Z,10.40
2017-09-23T04:33:13.698Z,10.40
2017-09-23T04:35:39.834Z,10.40
2017-09-23T04:38:05.960Z,10.40
2017-09-23T04:40:32.069Z,10.40
2017-09-23T04:42:58.223Z,10.50
2017-09-23T04:45:24.347Z,10.40
2017-09-23T04:47:50.522Z,10.30
2017-09-23T04:50:17.415Z,10.40
2017-09-23T04:52:43.528Z,10.40
2017-09-23T04:55:09.677Z,10.50
2017-09-23T04:57:36.538Z,10.40
2017-09-23T05:00:02.702Z,10.40
2017-09-23T05:02:29.573Z,10.40
2017-09-23T05:04:55.719Z,10.40
2017-09-23T05:07:21.847Z,10.50
2017-09-23T05:09:49.015Z,10.40
2017-09-23T05:12:15.146Z,10.40
2017-09-23T05:14:41.298Z,10.50
2017-09-23T05:17:07.424Z,10.50
2017-09-23T05:19:34.354Z,10.50
2017-09-23T05:22:00.474Z,10.50
2017-09-23T05:24:26.602Z,10.60
2017-09-23T05:26:52.750Z,10.50
2017-09-23T05:29:18.882Z,10.60
2017-09-23T05:31:44.999Z,10.60
2017-09-23T05:34:11.136Z,10.60
2017-09-23T05:36:37.341Z,10.60
2017-09-23T05:39:04.226Z,10.70
2017-09-23T05:41:30.399Z,10.60
2017-09-23T05:43:56.614Z,10.60
2017-09-23T05:46:22.792Z,10.60
2017-09-23T05:48:48.906Z,10.70
2017-09-23T05:51:15.051Z,10.70
2017-09-23T05:53:41.174Z,10.70
2017-09-23T05:56:07.313Z,10.70
2017-09-23T05:58:33.445Z,10.80
2017-09-23T06:00:59.599Z,11.00
2017-09-23T06:03:25.743Z,11.20
2017-09-23T06:05:51.887Z,11.30
2017-09-23T06:08:19.843Z,11.40
2017-09-23T06:10:45.985Z,11.50
2017-09-23T06:13:12.101Z,11.60
2017-09-23T06:15:38.231Z,11.50
2017-09-23T06:18:04.378Z,11.30
2017-09-23T06:20:30.597Z,11.40
2017-09-23T06:22:56.723Z,11.60
2017-09-23T06:25:23.615Z,11.70
2017-09-23T06:27:49.742Z,11.70
2017-09-23T06:30:16.687Z,11.60
2017-09-23T06:32:43.550Z,11.70
2017-09-23T06:35:10.462Z,11.70
2017-09-23T06:37:36.598Z,11.70
2017-09-23T06:40:02.782Z,11.80
2017-09-23T06:42:29.651Z,11.90
2017-09-23T06:44:55.777Z,11.90
2017-09-23T06:47:21.901Z,12.00
2017-09-23T06:49:48.019Z,12.10
2017-09-23T06:52:14.174Z,12.20
2017-09-23T06:54:40.327Z,12.30
2017-09-23T06:57:06.450Z,12.30
2017-09-23T06:59:32.591Z,12.40
2017-09-23T07:01:59.486Z,12.50
2017-09-23T07:04:25.622Z,12.50
2017-09-23T07:06:52.511Z,12.60
2017-09-23T07:09:18.646Z,12.60
2017-09-23T07:11:44.835Z,12.70
2017-09-23T07:14:10.991Z,12.80
2017-09-23T07:16:37.892Z,12.90
2017-09-23T07:19:04.047Z,12.90
2017-09-23T07:21:30.182Z,13.00
2017-09-23T07:23:56.323Z,13.00
2017-09-23T07:26:22.499Z,13.10
2017-09-23T07:28:48.647Z,13.20
2017-09-23T07:31:14.783Z,13.30
2017-09-23T07:33:41.682Z,13.30
2017-09-23T07:36:07.806Z,13.30
2017-09-23T07:38:33.969Z,13.40
2017-09-23T07:41:00.109Z,13.40
2017-09-23T07:43:26.250Z,13.40
2017-09-23T07:45:52.381Z,13.50
2017-09-23T07:48:18.563Z,13.60
2017-09-23T07:50:44.807Z,13.70
2017-09-23T07:53:11.691Z,13.80
2017-09-23T07:55:37.837Z,13.80
2017-09-23T07:58:04.739Z,13.80
2017-09-23T08:00:31.002Z,13.80
2017-09-23T08:02:57.135Z,13.90
2017-09-23T08:05:23.295Z,14.00
2017-09-23T08:07:49.478Z,14.00
2017-09-23T08:10:15.609Z,14.00
2017-09-23T08:12:41.787Z,14.10
2017-09-23T08:15:07.949Z,14.20
2017-09-23T08:17:34.866Z,14.30
2017-09-23T08:20:01.024Z,14.30
2017-09-23T08:22:27.162Z,14.40
2017-09-23T08:24:53.416Z,14.50
2017-09-23T08:27:20.301Z,14.60
2017-09-23T08:29:46.535Z,14.60
2017-09-23T08:32:12.654Z,14.60
2017-09-23T08:34:38.803Z,14.60
2017-09-23T08:37:04.932Z,14.70
2017-09-23T08:39:31.090Z,14.80
2017-09-23T08:41:57.238Z,14.90
2017-09-23T08:44:23.386Z,15.00
2017-09-23T08:46:49.525Z,15.00
2017-09-23T08:49:15.682Z,15.10
2017-09-23T08:51:41.809Z,15.20
2017-09-23T08:54:07.984Z,15.30
2017-09-23T08:56:34.127Z,15.40
2017-09-23T08:59:00.295Z,15.30
2017-09-23T09:01:26.417Z,15.40
2017-09-23T09:03:52.566Z,15.50
2017-09-23T09:06:19.443Z,15.70
2017-09-23T09:08:45.591Z,15.70
2017-09-23T09:11:11.742Z,15.80
2017-09-23T09:13:37.878Z,15.80
2017-09-23T09:16:04.018Z,15.80
2017-09-23T09:18:30.154Z,15.90
2017-09-23T09:20:56.298Z,16.00
2017-09-23T09:23:22.426Z,16.10
2017-09-23T09:25:48.560Z,16.10
2017-09-23T09:28:14.696Z,16.20
2017-09-23T09:30:40.841Z,16.30
2017-09-23T09:33:06.971Z,16.40
2017-09-23T09:35:33.110Z,16.30
2017-09-23T09:37:59.362Z,16.40
2017-09-23T09:40:25.557Z,16.40
2017-09-23T09:42:51.671Z,16.40
2017-09-23T09:45:17.822Z,16.60
2017-09-23T09:47:43.961Z,16.60
2017-09-23T09:50:10.086Z,16.80
2017-09-23T09:52:36.260Z,16.80
2017-09-23T09:55:02.414Z,16.90
2017-09-23T09:57:28.564Z,16.90
2017-09-23T09:59:54.694Z,17.00
2017-09-23T10:02:20.855Z,17.10
2017-09-23T10:04:46.994Z,17.20
2017-09-23T10:07:13.130Z,17.00
2017-09-23T10:09:39.279Z,17.20
2017-09-23T10:12:05.455Z,17.30
2017-09-23T10:14:31.622Z,17.30
2017-09-23T10:16:57.783Z,17.40
2017-09-23T10:19:23.929Z,17.40
2017-09-23T10:21:50.071Z,17.50
2017-09-23T10:24:16.241Z,17.30
2017-09-23T10:26:43.125Z,17.50
2017-09-23T10:29:09.267Z,17.50
2017-09-23T10:31:36.136Z,17.70
2017-09-23T10:34:02.297Z,17.70
2017-09-23T10:36:28.430Z,17.90
2017-09-23T10:38:54.590Z,18.00
2017-09-23T10:41:20.717Z,18.20
2017-09-23T10:43:46.850Z,18.30
2017-09-23T10:46:13.732Z,18.40
2017-09-23T10:48:39.884Z,18.40
2017-09-23T10:51:06.025Z,18.30
2017-09-23T10:53:32.212Z,18.40
2017-09-23T10:55:59.099Z,18.70
2017-09-23T10:58:25.262Z,18.70
2017-09-23T11:00:52.135Z,19.00
2017-09-23T11:03:18.288Z,18.90
2017-09-23T11:05:44.408Z,19.10
2017-09-23T11:08:11.283Z,19.30
2017-09-23T11:10:38.167Z,19.40
2017-09-23T11:13:05.159Z,19.50
2017-09-23T11:15:31.298Z,19.50
2017-09-23T11:17:57.436Z,19.60
2017-09-23T11:20:24.318Z,19.70
2017-09-23T11:22:50.431Z,19.70
2017-09-23T11:25:16.558Z,19.70
2017-09-23T11:27:42.679Z,19.50
2017-09-23T11:30:09.587Z,20.00
2017-09-23T11:32:35.703Z,19.90
2017-09-23T11:35:01.846Z,20.10
2017-09-23T11:37:28.702Z,20.20
2017-09-23T11:39:54.840Z,20.20
2017-09-23T11:42:21.000Z,20.40
2017-09-23T11:44:47.152Z,20.50
2017-09-23T11:47:13.280Z,20.30
2017-09-23T11:49:39.422Z,20.60
2017-09-23T11:52:06.315Z,20.80
2017-09-23T11:54:32.427Z,20.80
2017-09-23T11:56:58.575Z,20.10
2017-09-23T11:59:24.690Z,20.30
2017-09-23T12:01:51.571Z,20.90
2017-09-23T12:04:17.706Z,20.90
2017-09-23T12:06:43.850Z,21.20
2017-09-23T12:09:09.968Z,21.40
2017-09-23T12:11:36.155Z,21.30
2017-09-23T12:14:03.031Z,20.90
2017-09-23T12:16:29.199Z,20.80
2017-09-23T12:18:56.093Z,21.00
2017-09-23T12:21:22.254Z,21.00
2017-09-23T12:23:49.186Z,21.30
2017-09-23T12:26:18.901Z,21.30
2017-09-23T12:28:45.130Z,21.30
2017-09-23T12:31:11.282Z,21.20
2017-09-23T12:33:38.174Z,21.90
2017-09-23T12:36:04.322Z,21.80
2017-09-23T12:38:30.448Z,21.50
2017-09-23T12:40:57.326Z,21.40
2017-09-23T12:43:23.467Z,21.40
2017-09-23T12:45:49.591Z,21.30
2017-09-23T12:48:16.475Z,21.10
2017-09-23T12:50:42.629Z,21.10
2017-09-23T12:53:08.832Z,21.00
2017-09-23T12:55:34.946Z,20.70
2017-09-23T12:58:01.099Z,20.60
2017-09-23T13:00:27.244Z,20.60
2017-09-23T13:02:53.453Z,20.40
2017-09-23T13:05:28.095Z,20.40
2017-09-23T13:07:54.274Z,20.10
2017-09-23T13:10:20.393Z,20.00
2017-09-23T13:12:46.556Z,20.10
2017-09-23T13:15:13.518Z,20.30
2017-09-23T13:17:39.718Z,20.40
2017-09-23T13:20:05.876Z,20.30
2017-09-23T13:22:35.518Z,20.40
2017-09-23T13:25:02.756Z,20.00
2017-09-23T13:27:28.890Z,20.10
2017-09-23T13:29:57.124Z,19.80
2017-09-23T13:32:23.273Z,19.80
2017-09-23T13:34:49.456Z,19.80
2017-09-23T13:37:15.592Z,19.80
2017-09-23T13:39:42.771Z,19.60
2017-09-23T13:42:10.929Z,19.50
2017-09-23T13:44:37.161Z,19.40
2017-09-23T13:47:04.302Z,19.20
2017-09-23T13:49:39.234Z,19.40
2017-09-23T13:52:05.415Z,19.30
2017-09-23T13:54:31.586Z,19.50
2017-09-23T13:56:57.767Z,19.60
2017-09-23T13:59:23.923Z,19.60
2017-09-23T14:01:50.063Z,19.60
2017-09-23T14:04:18.045Z,19.60
2017-09-23T14:06:44.187Z,19.60
2017-09-23T14:09:10.303Z,19.70
2017-09-23T14:11:36.434Z,19.70
2017-09-23T14:14:02.566Z,19.70
2017-09-23T14:16:29.461Z,19.80
2017-09-23T14:18:55.597Z,19.80
2017-09-23T14:21:22.474Z,19.70
2017-09-23T14:23:48.592Z,19.70
2017-09-23T14:26:14.758Z,19.80
2017-09-23T14:28:41.634Z,19.70
2017-09-23T14:31:07.792Z,19.70
2017-09-23T14:33:33.988Z,19.80
2017-09-23T14:36:00.152Z,19.80
2017-09-23T14:38:27.038Z,20.00
2017-09-23T14:40:53.943Z,20.00
2017-09-23T14:43:20.066Z,20.00
2017-09-23T14:45:46.214Z,19.80
2017-09-23T14:48:12.359Z,19.80
2017-09-23T14:50:38.532Z,19.90
2017-09-23T14:53:04.688Z,20.00
2017-09-23T14:55:30.834Z,20.00
2017-09-23T14:57:56.982Z,20.00
2017-09-23T15:00:23.135Z,20.00
2017-09-23T15:02:49.303Z,19.90
2017-09-23T15:05:15.479Z,20.00
2017-09-23T15:07:41.696Z,20.10
2017-09-23T15:10:08.592Z,20.20
2017-09-23T15:12:34.731Z,20.20
2017-09-23T15:15:00.862Z,20.20
2017-09-23T15:17:27.755Z,20.10
2017-09-23T15:19:53.919Z,20.10
2017-09-23T15:22:20.082Z,20.10
2017-09-23T15:24:46.230Z,20.00
2017-09-23T15:27:13.108Z,19.90
2017-09-23T15:29:39.235Z,19.90
2017-09-23T15:32:05.448Z,19.90
2017-09-23T15:34:31.570Z,19.70
2017-09-23T15:36:57.755Z,19.60
2017-09-23T15:39:23.876Z,19.50
2017-09-23T15:41:49.984Z,19.50
2017-09-23T15:44:16.113Z,19.50
2017-09-23T15:46:42.231Z,19.40
2017-09-23T15:49:08.395Z,19.30
2017-09-23T15:51:34.567Z,19.30
2017-09-23T15:54:01.535Z,19.10
2017-09-23T15:56:28.411Z,19.00
2017-09-23T15:58:54.795Z,19.00
2017-09-23T16:01:20.918Z,19.00
2017-09-23T16:03:47.897Z,18.90
2017-09-23T16:06:14.027Z,18.90
2017-09-23T16:08:40.172Z,18.90
2017-09-23T16:11:06.359Z,18.80
2017-09-23T16:13:32.561Z,18.80
2017-09-23T16:15:58.685Z,18.80
2017-09-23T16:18:24.835Z,18.70
2017-09-23T16:20:50.978Z,18.70
2017-09-23T16:23:17.843Z,18.60
2017-09-23T16:25:43.972Z,18.50
2017-09-23T16:28:10.196Z,18.50
2017-09-23T16:30:37.084Z,18.50
2017-09-23T16:33:03.220Z,18.50
2017-09-23T16:35:29.390Z,18.50
2017-09-23T16:37:55.524Z,18.40
2017-09-23T16:40:21.707Z,18.40
2017-09-23T16:42:47.821Z,18.30
2017-09-23T16:45:14.710Z,18.30
2017-09-23T16:47:40.859Z,18.30
2017-09-23T16:50:07.738Z,18.20
2017-09-23T16:52:33.886Z,18.20
2017-09-23T16:55:02.881Z,18.10
2017-09-23T16:57:29.440Z,18.10
2017-09-23T16:59:56.887Z,18.00
2017-09-23T17:02:23.031Z,18.00
2017-09-23T17:04:49.182Z,18.00
2017-09-23T17:07:16.351Z,17.90
2017-09-23T17:09:42.527Z,17.90
2017-09-23T17:12:08.651Z,17.80
2017-09-23T17:14:34.803Z,17.80
2017-09-23T17:17:00.931Z,17.80
2017-09-23T17:19:27.103Z,17.70
2017-09-23T17:21:53.249Z,17.60
2017-09-23T17:24:20.211Z,17.50
2017-09-23T17:26:46.349Z,17.50
2017-09-23T17:29:12.517Z,17.50
2017-09-23T17:31:44.082Z,17.40
2017-09-23T17:34:10.238Z,17.40
2017-09-23T17:36:36.393Z,17.40
2017-09-23T17:39:02.620Z,17.30
2017-09-23T17:41:29.498Z,17.20
2017-09-23T17:43:55.674Z,17.20
2017-09-23T17:46:22.571Z,17.10
2017-09-23T17:48:48.767Z,17.00
2017-09-23T17:51:14.956Z,16.90
2017-09-23T17:53:41.147Z,16.90
2017-09-23T17:56:07.297Z,16.90
2017-09-23T17:58:33.424Z,16.90
2017-09-23T18:00:59.584Z,16.80
2017-09-23T18:03:25.709Z,16.70
2017-09-23T18:05:51.846Z,16.50
2017-09-23T18:08:17.982Z,16.60
2017-09-23T18:10:44.118Z,16.50
2017-09-23T18:13:10.260Z,16.50
2017-09-23T18:15:36.443Z,16.40
2017-09-23T18:18:02.625Z,16.30
2017-09-23T18:20:28.763Z,16.30
2017-09-23T18:22:55.634Z,16.20
2017-09-23T18:25:21.853Z,16.20
2017-09-23T18:27:47.990Z,16.10
2017-09-23T18:30:14.148Z,16.00
2017-09-23T18:32:40.299Z,15.90
2017-09-23T18:35:06.490Z,15.90
2017-09-23T18:37:32.725Z,16.00
2017-09-23T18:39:58.895Z,16.00
2017-09-23T18:42:25.043Z,15.90
2017-09-23T18:44:51.179Z,15.80
2017-09-23T18:47:17.322Z,15.80
2017-09-23T18:49:43.487Z,15.70
2017-09-23T18:52:09.647Z,15.70
2017-09-23T18:54:35.770Z,15.70
2017-09-23T18:57:01.928Z,15.70
2017-09-23T18:59:28.098Z,15.60
2017-09-23T19:01:54.379Z,15.60
2017-09-23T19:04:20.646Z,15.50
2017-09-23T19:06:46.831Z,15.50
2017-09-23T19:09:13.003Z,15.50
2017-09-23T19:11:39.147Z,15.50
2017-09-23T19:14:05.275Z,15.50
2017-09-23T19:16:31.457Z,15.40
2017-09-23T19:18:58.352Z,15.40
2017-09-23T19:21:24.544Z,15.40
2017-09-23T19:23:50.739Z,15.40
2017-09-23T19:26:16.907Z,15.40
2017-09-23T19:28:45.103Z,15.40
2017-09-23T19:31:16.337Z,15.40
2017-09-23T19:33:42.518Z,15.40
2017-09-23T19:36:11.530Z,15.40
2017-09-23T19:38:38.763Z,15.40
2017-09-23T19:41:04.884Z,15.40
2017-09-23T19:43:31.135Z,15.40
2017-09-23T19:45:57.290Z,15.40
2017-09-23T19:48:24.207Z,15.40
2017-09-23T19:50:53.207Z,15.40
2017-09-23T19:53:19.350Z,15.40
2017-09-23T19:55:45.482Z,15.50
2017-09-23T19:58:11.631Z,15.40
2017-09-23T20:00:38.519Z,15.40
2017-09-23T20:03:04.688Z,15.40
2017-09-23T20:05:30.821Z,15.40
2017-09-23T20:07:56.967Z,15.40
2017-09-23T20:10:23.089Z,15.30
2017-09-23T20:12:49.970Z,15.30
2017-09-23T20:15:16.089Z,15.30
2017-09-23T20:17:42.260Z,15.30
2017-09-23T20:20:08.411Z,15.30
2017-09-23T20:22:34.566Z,15.30
2017-09-23T20:25:01.457Z,15.20
2017-09-23T20:27:27.578Z,15.20
2017-09-23T20:29:53.712Z,15.20
2017-09-23T20:32:19.832Z,15.30
2017-09-23T20:34:45.983Z,15.30
2017-09-23T20:37:12.117Z,15.30
2017-09-23T20:39:38.284Z,15.30
2017-09-23T20:42:04.483Z,15.30
2017-09-23T20:44:31.434Z,15.30
2017-09-23T20:46:57.600Z,15.30
2017-09-23T20:49:23.850Z,15.30
2017-09-23T20:51:49.967Z,15.30
2017-09-23T20:54:16.112Z,15.30
2017-09-23T20:56:42.246Z,15.30
2017-09-23T20:59:08.439Z,15.30
2017-09-23T21:01:34.586Z,15.20
2017-09-23T21:04:00.718Z,15.20
2017-09-23T21:06:26.830Z,15.10
2017-09-23T21:08:52.974Z,15.20
2017-09-23T21:11:19.091Z,15.10
2017-09-23T21:13:45.227Z,15.10
2017-09-23T21:16:11.338Z,15.20
2017-09-23T21:18:37.496Z,15.20
2017-09-23T21:21:03.631Z,15.20
2017-09-23T21:23:29.787Z,15.10
2017-09-23T21:25:55.934Z,15.10
2017-09-23T21:28:22.053Z,15.20
2017-09-23T21:30:48.213Z,15.10
2017-09-23T21:33:14.337Z,15.00
2017-09-23T21:35:41.242Z,15.10
2017-09-23T21:38:07.381Z,15.10
2017-09-23T21:40:34.248Z,15.10
2017-09-23T21:43:00.374Z,15.10
2017-09-23T21:45:26.536Z,15.10
2017-09-23T21:47:52.676Z,15.10
2017-09-23T21:50:18.819Z,15.00
2017-09-23T21:52:45.027Z,15.00
2017-09-23T21:55:11.257Z,15.00
2017-09-23T21:57:37.561Z,15.00
2017-09-23T22:00:03.770Z,15.00
2017-09-23T22:02:29.950Z,15.00
2017-09-23T22:04:56.827Z,15.00
2017-09-23T22:07:22.993Z,14.90
2017-09-23T22:09:49.129Z,15.00
2017-09-23T22:12:15.290Z,15.00
2017-09-23T22:14:42.175Z,15.00
2017-09-23T22:17:08.390Z,14.90
2017-09-23T22:19:34.666Z,14.90
2017-09-23T22:22:00.832Z,14.90
2017-09-23T22:24:26.990Z,14.90
2017-09-23T22:26:53.107Z,14.90
2017-09-23T22:29:19.254Z,14.90
2017-09-23T22:31:45.385Z,14.90
2017-09-23T22:34:11.522Z,14.90
2017-09-23T22:36:38.398Z,14.90
2017-09-23T22:39:04.545Z,14.80
2017-09-23T22:41:30.703Z,14.80
2017-09-23T22:43:57.521Z,14.90
2017-09-23T22:46:23.679Z,14.80
2017-09-23T22:48:49.823Z,14.90
2017-09-23T22:51:16.713Z,14.80
2017-09-23T22:53:42.842Z,14.80
2017-09-23T22:56:08.997Z,14.80
2017-09-23T22:58:35.137Z,14.80
2017-09-23T23:01:01.307Z,14.70
2017-09-23T23:03:27.430Z,14.70
2017-09-23T23:05:53.577Z,14.70
2017-09-23T23:08:19.699Z,14.70
2017-09-23T23:10:45.864Z,14.70
2017-09-23T23:13:12.022Z,14.70
2017-09-23T23:15:38.169Z,14.70
2017-09-23T23:18:04.327Z,14.70
2017-09-23T23:20:30.469Z,14.60
2017-09-23T23:22:56.599Z,14.60
2017-09-23T23:25:23.482Z,14.50
2017-09-23T23:27:49.606Z,14.50
2017-09-23T23:30:15.787Z,14.50
2017-09-23T23:32:41.927Z,14.50
2017-09-23T23:35:08.051Z,14.50
2017-09-23T23:37:34.196Z,14.50
2017-09-23T23:40:01.054Z,14.50
2017-09-23T23:42:27.198Z,14.50
2017-09-23T23:44:53.339Z,14.50
2017-09-23T23:47:20.219Z,14.40
2017-09-23T23:49:46.354Z,14.40
2017-09-23T23:52:12.487Z,14.40
2017-09-23T23:54:38.627Z,14.40
2017-09-23T23:57:04.790Z,14.40
2017-09-23T23:59:30.935Z,14.40
